Time;durP1;ratioP1;P1;durP2;ratioP2;P2;SDS_P1;SDS_P2;PMS_P1;PMS_P2;Temp;Humidity;BMP_temperature;BMP_pressure;BME280_temperature;BME280_humidity;BME280_pressure;Samples;Min_cycle;Max_cycle;Signal;HPM_P1;HPM_P2
2023/10/09 00:03:15;;;;;;;;;;;;;;;11.65;35.62;101197.97;5035445;28;20003;-67
2023/10/09 00:05:45;;;;;;;;;;;;;;;11.59;35.10;101191.44;5055047;28;20011;-69
2023/10/09 00:08:19;;;;;;;;;;;;;;;11.57;35.52;101194.31;5054733;28;19999;-68
2023/10/09 00:10:54;;;;;;;;;;;;;;;11.54;36.13;101188.47;5037074;28;19974;-69
2023/10/09 00:13:32;;;;;;;;;;;;;;;11.53;36.73;101178.72;5055163;28;19917;-68
2023/10/09 00:16:08;;;;;;;;;;;;;;;11.45;35.54;101173.41;5077327;28;19995;-67
2023/10/09 00:18:34;;;;;;;;;;;;;;;11.38;35.92;101162.53;5076876;28;19974;-68
2023/10/09 00:21:11;;;;;;;;;;;;;;;11.34;35.99;101161.25;5095223;28;19916;-67
2023/10/09 00:23:36;;;;;;;;;;;;;;;11.32;35.96;101172.16;5091047;28;19917;-68
2023/10/09 00:26:08;;;;;;;;;;;;;;;11.26;36.06;101161.31;5057009;28;19919;-68
2023/10/09 00:28:37;;;;;;;;;;;;;;;11.22;35.82;101156.28;5054690;28;19912;-68
2023/10/09 00:31:06;;;;;;;;;;;;;;;11.20;36.09;101144.88;5054448;28;19920;-67
2023/10/09 00:33:32;;;;;;;;;;;;;;;11.15;36.20;101154.50;5054591;28;19975;-67
2023/10/09 00:36:08;;;;;;;;;;;;;;;11.11;36.18;101145.97;5056594;28;19971;-67
2023/10/09 00:38:34;;;;;;;;;;;;;;;11.06;36.25;101147.53;5058020;28;19912;-68
2023/10/09 00:43:36;;;;;;;;;;;;;;;10.92;36.57;101141.91;5094674;28;19927;-68
2023/10/09 00:46:03;;;;;;;;;;;;;;;10.86;36.26;101139.94;5090787;28;19918;-68
2023/10/09 00:48:32;;;;;;;;;;;;;;;10.84;36.26;101133.91;5074896;28;19958;-68
2023/10/09 00:51:00;;;;;;;;;;;;;;;10.79;36.38;101129.06;5058561;28;19912;-68
2023/10/09 00:53:33;;;;;;;;;;;;;;;10.75;36.87;101129.59;5074465;28;19943;-69
2023/10/09 00:56:28;;;;;;;;;;;;;;;10.68;37.03;101132.19;5073746;28;19912;-68
2023/10/09 00:58:56;;;;;;;;;;;;;;;10.69;37.16;101128.47;5053828;28;20007;-69
2023/10/09 01:01:34;;;;;;;;;;;;;;;10.68;37.22;101132.19;5084349;28;20015;-69
2023/10/09 01:04:11;;;;;;;;;;;;;;;10.66;36.84;101131.53;5074069;28;19913;-69
2023/10/09 01:06:44;;;;;;;;;;;;;;;10.62;37.07;101122.13;5074035;28;19916;-69
2023/10/09 01:09:14;;;;;;;;;;;;;;;10.60;36.89;101118.78;5073513;28;19928;-68
2023/10/09 01:12:21;;;;;;;;;;;;;;;10.53;37.15;101116.00;5073364;28;19913;-68
2023/10/09 01:14:28;;;;;;;;;;;;;;;10.45;36.96;101113.34;5065255;28;19971;-69
2023/10/09 01:16:55;;;;;;;;;;;;;;;10.43;37.62;101120.72;5077050;28;19959;-69
2023/10/09 01:19:30;;;;;;;;;;;;;;;10.39;37.46;101127.47;5073783;28;19916;-69
2023/10/09 01:22:02;;;;;;;;;;;;;;;10.33;37.59;101120.97;5055922;28;19926;-69
2023/10/09 01:24:31;;;;;;;;;;;;;;;10.27;37.63;101122.47;5073592;28;20003;-69
2023/10/09 01:26:59;;;;;;;;;;;;;;;10.23;37.39;101117.63;5073777;28;19912;-69
2023/10/09 01:29:27;;;;;;;;;;;;;;;10.26;37.57;101123.47;5073495;28;20007;-69
2023/10/09 01:31:56;;;;;;;;;;;;;;;10.25;37.62;101118.28;5073466;28;20373;-68
2023/10/09 01:34:32;;;;;;;;;;;;;;;10.25;37.60;101118.28;5053572;28;19913;-68
2023/10/09 01:37:05;;;;;;;;;;;;;;;10.24;37.31;101116.63;5084628;28;19916;-68
2023/10/09 01:39:30;;;;;;;;;;;;;;;10.19;37.37;101111.75;5093825;28;19923;-68
2023/10/09 01:41:59;;;;;;;;;;;;;;;10.20;37.76;101109.94;5093583;28;20360;-67
2023/10/09 01:44:34;;;;;;;;;;;;;;;10.20;37.94;101102.72;5094150;28;19912;-68
2023/10/09 01:47:03;;;;;;;;;;;;;;;10.16;38.15;101098.72;5063995;28;19912;-68
2023/10/09 01:49:31;;;;;;;;;;;;;;;10.10;37.71;101099.38;5073325;28;19985;-69
2023/10/09 01:52:01;;;;;;;;;;;;;;;10.02;37.27;101089.53;5072658;28;19965;-69
2023/10/09 01:54:38;;;;;;;;;;;;;;;9.96;37.64;101092.09;5072344;28;19916;-69
2023/10/09 01:57:05;;;;;;;;;;;;;;;9.91;36.87;101092.59;5073625;28;19947;-69
2023/10/09 01:59:37;;;;;;;;;;;;;;;9.82;36.81;101085.59;5073459;28;19913;-68
2023/10/09 02:02:13;;;;;;;;;;;;;;;9.75;36.95;101085.47;5052053;28;20285;-69
2023/10/09 02:04:40;;;;;;;;;;;;;;;9.72;37.49;101090.34;5052253;28;19917;-68
2023/10/09 02:07:08;;;;;;;;;;;;;;;9.67;37.47;101088.97;5063984;28;19965;-68
2023/10/09 02:09:34;;;;;;;;;;;;;;;9.66;37.86;101094.53;5055198;28;19920;-68
2023/10/09 02:12:00;;;;;;;;;;;;;;;9.68;38.01;101090.66;5073078;28;19917;-69
2023/10/09 02:14:26;;;;;;;;;;;;;;;9.68;37.52;101096.03;5072986;28;19923;-69
2023/10/09 02:17:09;;;;;;;;;;;;;;;9.63;38.29;101092.19;5073017;28;19962;-69
2023/10/09 02:19:34;;;;;;;;;;;;;;;9.59;37.55;101094.38;5073119;28;19954;-69
2023/10/09 02:22:03;;;;;;;;;;;;;;;9.55;37.74;101094.91;5073025;28;19960;-69
2023/10/09 02:27:12;;;;;;;;;;;;;;;9.48;37.56;101086.69;5072861;28;19913;-69
2023/10/09 02:29:38;;;;;;;;;;;;;;;9.44;37.51;101090.75;5054624;28;19913;-68
2023/10/09 02:32:13;;;;;;;;;;;;;;;9.44;37.78;101083.53;5078930;28;19999;-68
2023/10/09 02:34:38;;;;;;;;;;;;;;;9.43;37.93;101083.69;5093364;28;20010;-68
2023/10/09 02:37:12;;;;;;;;;;;;;;;9.38;38.04;101084.22;5093071;28;19951;-69
2023/10/09 02:39:43;;;;;;;;;;;;;;;9.34;37.92;101085.53;5093048;28;20357;-67
2023/10/09 02:44:40;;;;;;;;;;;;;;;9.27;37.74;101068.50;5092909;28;19916;-67
2023/10/09 02:47:11;;;;;;;;;;;;;;;9.23;38.50;101070.66;5080053;28;20442;-68
2023/10/09 02:49:39;;;;;;;;;;;;;;;9.23;38.06;101068.00;5054597;28;19912;-68
2023/10/09 02:52:07;;;;;;;;;;;;;;;9.22;38.28;101062.78;5073193;28;19962;-68
2023/10/09 02:54:38;;;;;;;;;;;;;;;9.24;38.26;101053.56;5072595;28;19919;-68
2023/10/09 02:57:16;;;;;;;;;;;;;;;9.31;38.65;101051.06;5072765;28;19912;-68
2023/10/09 02:59:41;;;;;;;;;;;;;;;9.33;38.11;101054.41;5072473;28;19912;-69
2023/10/09 03:02:07;;;;;;;;;;;;;;;9.34;37.96;101060.59;5065014;28;19913;-69
2023/10/09 03:04:32;;;;;;;;;;;;;;;9.34;37.95;101052.53;5074504;28;19952;-68
2023/10/09 03:06:58;;;;;;;;;;;;;;;9.32;38.05;101047.34;5076047;28;20004;-68
2023/10/09 03:09:27;;;;;;;;;;;;;;;9.36;37.48;101048.72;5075967;28;19921;-68
2023/10/09 03:12:09;;;;;;;;;;;;;;;9.39;38.13;101056.38;5057983;28;19916;-68
2023/10/09 03:14:38;;;;;;;;;;;;;;;9.40;37.71;101039.31;5075795;28;19912;-69
2023/10/09 03:17:05;;;;;;;;;;;;;;;9.38;37.60;101043.16;5076077;28;20272;-68
2023/10/09 03:19:37;;;;;;;;;;;;;;;9.39;37.97;101048.34;5075974;28;19912;-68
2023/10/09 03:22:02;;;;;;;;;;;;;;;9.39;38.09;101044.84;5075891;28;20360;-68
2023/10/09 03:24:27;;;;;;;;;;;;;;;9.41;38.01;101048.19;5075846;28;19912;-67
2023/10/09 03:26:55;;;;;;;;;;;;;;;9.43;38.01;101043.47;5076018;28;19912;-68
2023/10/09 03:29:21;;;;;;;;;;;;;;;9.43;38.16;101049.66;5090493;28;19920;-68
2023/10/09 03:31:46;;;;;;;;;;;;;;;9.44;37.70;101051.34;5096038;28;20390;-68
2023/10/09 03:34:12;;;;;;;;;;;;;;;9.42;37.77;101041.81;5095793;28;19916;-67
2023/10/09 03:36:38;;;;;;;;;;;;;;;9.40;37.39;101044.66;5095858;28;20019;-67
2023/10/09 03:41:51;;;;;;;;;;;;;;;9.34;37.49;101047.19;5095624;28;20311;-68
2023/10/09 03:44:18;;;;;;;;;;;;;;;9.29;37.70;101047.72;5095794;28;19912;-69
2023/10/09 03:46:46;;;;;;;;;;;;;;;9.27;37.69;101041.69;5078840;28;19912;-68
2023/10/09 03:49:13;;;;;;;;;;;;;;;9.26;37.85;101046.19;5075458;28;19983;-68
2023/10/09 03:51:39;;;;;;;;;;;;;;;9.25;37.73;101047.22;5075325;28;19913;-68
2023/10/09 03:54:08;;;;;;;;;;;;;;;9.20;37.34;101046.88;5074817;28;19920;-68
2023/10/09 03:56:34;;;;;;;;;;;;;;;9.18;37.97;101046.22;5075393;28;20418;-68
2023/10/09 03:59:01;;;;;;;;;;;;;;;9.15;37.86;101040.38;5075358;28;19913;-68
2023/10/09 04:01:28;;;;;;;;;;;;;;;9.11;38.28;101039.88;5057146;28;20011;-69
2023/10/09 04:04:03;;;;;;;;;;;;;;;9.09;38.16;101041.88;5074960;28;19917;-68
2023/10/09 04:06:33;;;;;;;;;;;;;;;9.07;38.11;101041.22;5075277;28;20273;-70
2023/10/09 04:11:44;;;;;;;;;;;;;;;9.08;38.07;101043.72;5075677;28;19935;-68
2023/10/09 04:14:32;;;;;;;;;;;;;;;9.09;38.36;101033.84;5056974;28;19955;-69
2023/10/09 04:17:32;;;;;;;;;;;;;;;9.09;38.09;101028.47;5074285;28;19919;-68
2023/10/09 04:22:42;;;;;;;;;;;;;;;9.05;37.84;101033.34;5074387;28;19916;-68
2023/10/09 04:25:14;;;;;;;;;;;;;;;9.04;37.81;101033.50;5085229;28;19916;-68
2023/10/09 04:27:39;;;;;;;;;;;;;;;9.01;37.87;101036.53;5095542;28;19977;-68
2023/10/09 04:30:07;;;;;;;;;;;;;;;8.96;37.96;101037.03;5094968;28;20056;-68
2023/10/09 04:32:34;;;;;;;;;;;;;;;8.93;38.08;101026.66;5095149;28;19916;-68
2023/10/09 04:35:32;;;;;;;;;;;;;;;8.89;38.39;101031.50;5094849;28;20006;-68
2023/10/09 04:38:05;;;;;;;;;;;;;;;8.87;38.00;101027.34;5076863;28;19913;-70
2023/10/09 04:43:20;;;;;;;;;;;;;;;8.76;37.99;101035.72;5074399;28;20250;-68
2023/10/09 04:48:38;;;;;;;;;;;;;;;8.65;38.51;101031.50;5074136;28;20281;-68
2023/10/09 04:51:34;;;;;;;;;;;;;;;8.61;38.32;101031.00;5074440;28;19919;-68
2023/10/09 04:54:14;;;;;;;;;;;;;;;8.58;38.14;101026.00;5053327;28;20320;-68
2023/10/09 04:56:52;;;;;;;;;;;;;;;8.53;38.57;101025.66;5071552;28;19947;-68
2023/10/09 04:59:18;;;;;;;;;;;;;;;8.48;38.64;101022.66;5073937;28;19919;-67
2023/10/09 05:01:58;;;;;;;;;;;;;;;8.45;38.48;101022.97;5073495;28;19912;-69
2023/10/09 05:04:39;;;;;;;;;;;;;;;8.43;38.24;101024.97;5073769;28;19913;-68
2023/10/09 05:10:14;;;;;;;;;;;;;;;8.38;38.65;101027.31;5022682;28;19924;-68
2023/10/09 05:12:46;;;;;;;;;;;;;;;8.37;38.07;101026.44;5073609;28;19970;-68
2023/10/09 05:15:13;;;;;;;;;;;;;;;8.32;38.60;101018.91;5073636;28;19981;-68
2023/10/09 05:17:51;;;;;;;;;;;;;;;8.28;38.87;101025.63;5072767;28;20521;-69
2023/10/09 05:22:58;;;;;;;;;;;;;;;8.26;39.35;101026.75;5055617;28;19958;-68
2023/10/09 05:28:31;;;;;;;;;;;;;;;8.20;39.01;101024.75;5073106;28;19919;-70
2023/10/09 05:31:08;;;;;;;;;;;;;;;8.20;39.24;101027.44;5073665;28;20014;-67
2023/10/09 05:33:36;;;;;;;;;;;;;;;8.16;38.96;101020.72;5073468;28;19916;-70
2023/10/09 05:36:47;;;;;;;;;;;;;;;8.14;39.05;101023.56;5055909;28;19923;-70
2023/10/09 05:39:17;;;;;;;;;;;;;;;8.12;38.76;101022.91;5064704;28;20448;-71
2023/10/09 05:41:59;;;;;;;;;;;;;;;8.10;39.27;101024.91;5073564;28;20388;-69
2023/10/09 06:08:26;;;;;;;;;;;;;;;8.11;39.78;101014.00;5072991;28;19935;-68
2023/10/09 06:13:45;;;;;;;;;;;;;;;8.08;40.07;101014.38;5073259;28;19951;-67
2023/10/09 06:16:31;;;;;;;;;;;;;;;8.07;39.94;101012.69;5073140;28;19961;-67
2023/10/09 06:19:12;;;;;;;;;;;;;;;8.10;39.49;101016.88;5061636;28;19938;-68
2023/10/09 06:24:14;;;;;;;;;;;;;;;8.11;39.68;101016.69;5067435;28;19920;-69
2023/10/09 06:29:34;;;;;;;;;;;;;;;8.21;39.59;101029.94;5073148;28;19920;-67
2023/10/09 06:34:44;;;;;;;;;;;;;;;8.30;39.76;101039.66;5072877;28;19913;-68
2023/10/09 06:40:10;;;;;;;;;;;;;;;8.37;39.22;101033.63;5075668;28;19924;-68
2023/10/09 06:47:42;;;;;;;;;;;;;;;8.46;39.33;101043.38;5075335;28;20428;-68
2023/10/09 06:52:57;;;;;;;;;;;;;;;8.49;39.61;101051.09;5073732;28;20326;-69
2023/10/09 06:55:32;;;;;;;;;;;;;;;8.50;38.96;101050.91;5075529;28;19916;-68
2023/10/09 06:58:01;;;;;;;;;;;;;;;8.57;38.91;101043.06;5076397;28;19912;-70
2023/10/09 07:03:14;;;;;;;;;;;;;;;8.68;39.21;101058.78;5076146;28;19912;-70
2023/10/09 07:06:04;;;;;;;;;;;;;;;8.72;39.48;101065.47;5075226;28;19996;-70
2023/10/09 07:08:36;;;;;;;;;;;;;;;8.74;39.00;101064.50;5057324;28;19963;-69
2023/10/09 07:11:21;;;;;;;;;;;;;;;8.76;39.32;101057.97;5073068;28;19948;-68
2023/10/09 07:13:54;;;;;;;;;;;;;;;8.88;39.21;101061.16;5085879;28;20513;-67
2023/10/09 07:16:28;;;;;;;;;;;;;;;8.95;39.06;101058.63;5089919;28;19932;-69
2023/10/09 07:19:09;;;;;;;;;;;;;;;8.99;39.03;101059.97;5075240;28;19912;-67
2023/10/09 07:21:35;;;;;;;;;;;;;;;9.07;39.05;101060.78;5075329;28;19913;-69
2023/10/09 07:24:14;;;;;;;;;;;;;;;9.14;38.69;101066.31;5075843;28;19912;-67
2023/10/09 07:26:47;;;;;;;;;;;;;;;9.19;38.68;101060.44;5075640;28;19920;-68
2023/10/09 07:29:21;;;;;;;;;;;;;;;9.24;38.47;101060.78;5075984;28;19939;-70
2023/10/09 07:31:56;;;;;;;;;;;;;;;9.30;38.57;101065.44;5075991;28;19912;-67
2023/10/09 07:34:32;;;;;;;;;;;;;;;9.38;38.36;101064.59;5075850;28;19917;-66
2023/10/09 07:37:03;;;;;;;;;;;;;;;9.39;38.81;101059.06;5075708;28;19912;-67
2023/10/09 07:39:34;;;;;;;;;;;;;;;9.42;38.69;101060.59;5075443;28;20015;-67
2023/10/09 07:42:18;;;;;;;;;;;;;;;9.48;38.49;101054.53;5075069;28;19913;-67
2023/10/09 07:44:52;;;;;;;;;;;;;;;9.52;38.32;101052.34;5087012;28;19912;-68
2023/10/09 07:47:22;;;;;;;;;;;;;;;9.57;38.25;101056.19;5081110;28;19913;-67
2023/10/09 07:49:51;;;;;;;;;;;;;;;9.63;38.29;101039.38;5056613;28;19913;-67
2023/10/09 07:52:16;;;;;;;;;;;;;;;9.71;38.00;101049.25;5074695;28;19916;-68
2023/10/09 07:54:49;;;;;;;;;;;;;;;9.77;38.28;101051.25;5075071;28;20065;-68
2023/10/09 07:57:25;;;;;;;;;;;;;;;9.82;38.08;101046.19;5075119;28;20007;-68
2023/10/09 08:02:42;;;;;;;;;;;;;;;10.04;37.75;101047.25;5031429;28;19913;-68
2023/10/09 08:05:18;;;;;;;;;;;;;;;10.13;37.86;101048.06;5055135;28;19919;-68
2023/10/09 08:07:54;;;;;;;;;;;;;;;10.30;37.44;101042.59;5072341;28;19974;-68
2023/10/09 08:12:57;;;;;;;;;;;;;;;10.48;37.39;101059.28;5095290;28;19916;-68
2023/10/09 08:15:34;;;;;;;;;;;;;;;10.64;37.38;101053.81;5094936;28;19912;-68
2023/10/09 08:18:03;;;;;;;;;;;;;;;10.75;37.72;101057.06;5057583;28;20385;-68
2023/10/09 08:20:50;;;;;;;;;;;;;;;10.87;37.01;101058.31;5057120;28;20357;-68
2023/10/09 08:23:28;;;;;;;;;;;;;;;10.97;36.79;101061.56;5074631;28;19913;-67
2023/10/09 08:26:15;;;;;;;;;;;;;;;11.08;37.11;101052.25;5075145;28;19959;-67
2023/10/09 08:28:42;;;;;;;;;;;;;;;11.21;36.38;101048.94;5054910;28;20408;-67
2023/10/09 08:31:18;;;;;;;;;;;;;;;11.28;36.53;101057.94;5055140;28;19960;-68
2023/10/09 08:33:44;;;;;;;;;;;;;;;11.41;36.36;101057.31;5054766;28;19924;-67
2023/10/09 08:36:11;;;;;;;;;;;;;;;11.47;36.07;101064.63;5054516;28;19912;-68
2023/10/09 08:38:36;;;;;;;;;;;;;;;11.59;36.40;101059.63;5054289;28;20396;-67
2023/10/09 08:41:17;;;;;;;;;;;;;;;11.73;36.47;101063.31;5066602;28;19920;-68
2023/10/09 08:43:52;;;;;;;;;;;;;;;11.87;36.23;101065.19;5074009;28;19917;-67
2023/10/09 08:46:22;;;;;;;;;;;;;;;11.99;36.04;101073.63;5073957;28;19919;-68
2023/10/09 08:48:48;;;;;;;;;;;;;;;12.11;35.92;101076.66;5074204;28;20368;-67
2023/10/09 08:51:14;;;;;;;;;;;;;;;12.24;35.94;101067.91;5074312;28;19916;-67
2023/10/09 08:53:42;;;;;;;;;;;;;;;12.34;35.73;101068.47;5074078;28;19924;-67
2023/10/09 08:56:14;;;;;;;;;;;;;;;12.47;35.28;101070.47;5074589;28;19939;-67
2023/10/09 08:58:40;;;;;;;;;;;;;;;12.55;35.32;101075.72;5074086;28;20506;-68
2023/10/09 09:01:05;;;;;;;;;;;;;;;12.65;35.36;101070.00;5073607;28;19973;-67
2023/10/09 09:03:38;;;;;;;;;;;;;;;12.73;35.13;101061.81;5073634;28;20288;-68
2023/10/09 09:06:04;;;;;;;;;;;;;;;12.85;35.22;101062.09;5081650;28;19916;-68
2023/10/09 09:08:31;;;;;;;;;;;;;;;12.89;35.16;101056.16;5093881;28;20373;-68
2023/10/09 09:10:58;;;;;;;;;;;;;;;12.98;34.58;101059.53;5094179;28;19927;-68
2023/10/09 09:13:24;;;;;;;;;;;;;;;13.00;34.83;101053.94;5093855;28;19916;-68
2023/10/09 09:15:53;;;;;;;;;;;;;;;13.02;34.70;101058.13;5092414;28;19912;-68
2023/10/09 09:18:18;;;;;;;;;;;;;;;12.98;34.43;101059.53;5073907;28;19939;-68
2023/10/09 09:20:46;;;;;;;;;;;;;;;12.96;34.14;101059.75;5055678;28;19917;-68
2023/10/09 09:23:14;;;;;;;;;;;;;;;12.93;34.01;101057.41;5057271;28;19920;-68
2023/10/09 09:25:59;;;;;;;;;;;;;;;12.96;34.94;101061.56;5073826;28;20301;-68
2023/10/09 09:28:26;;;;;;;;;;;;;;;13.02;34.31;101052.72;5073440;28;19912;-68
2023/10/09 09:30:53;;;;;;;;;;;;;;;13.04;34.34;101053.38;5073561;28;20467;-68
2023/10/09 09:36:04;;;;;;;;;;;;;;;13.14;33.65;101031.44;5073255;28;19919;-68
2023/10/09 09:38:49;;;;;;;;;;;;;;;13.33;33.78;101030.78;5073457;28;19916;-68
2023/10/09 09:41:24;;;;;;;;;;;;;;;13.53;33.74;101024.66;5074437;28;19920;-68
2023/10/09 09:43:56;;;;;;;;;;;;;;;13.65;33.90;101031.19;5073935;28;19913;-68
2023/10/09 09:46:30;;;;;;;;;;;;;;;13.70;33.50;101041.34;5073557;28;20368;-68
2023/10/09 09:49:00;;;;;;;;;;;;;;;13.72;33.16;101037.44;5073482;28;19916;-68
2023/10/09 09:51:28;;;;;;;;;;;;;;;13.72;32.94;101020.41;5073328;28;19951;-68
2023/10/09 09:53:54;;;;;;;;;;;;;;;13.80;33.20;101011.28;5072588;28;19917;-68
2023/10/09 09:56:21;;;;;;;;;;;;;;;13.75;32.30;101025.41;5073185;28;20349;-68
2023/10/09 09:58:53;;;;;;;;;;;;;;;13.82;32.27;101036.22;5072771;28;19923;-68
2023/10/09 10:01:25;;;;;;;;;;;;;;;13.91;32.14;101026.91;5072918;28;20011;-68
2023/10/09 10:03:57;;;;;;;;;;;;;;;13.92;32.04;101034.81;5053334;28;19917;-68
2023/10/09 10:06:26;;;;;;;;;;;;;;;14.05;32.67;101036.72;5053339;28;19923;-68
2023/10/09 10:08:51;;;;;;;;;;;;;;;14.21;32.39;101029.28;5052574;28;20409;-68
2023/10/09 10:11:40;;;;;;;;;;;;;;;14.38;32.81;101037.88;5052917;28;19998;-68
2023/10/09 10:14:20;;;;;;;;;;;;;;;14.57;32.15;101034.38;5036268;28;19967;-68
2023/10/09 10:17:16;;;;;;;;;;;;;;;14.70;31.86;101023.59;5058903;28;19917;-68
2023/10/09 10:19:59;;;;;;;;;;;;;;;14.78;31.65;101014.44;5076982;28;19936;-68
2023/10/09 10:22:28;;;;;;;;;;;;;;;14.99;32.84;101021.53;5076516;28;20357;-68
2023/10/09 10:25:09;;;;;;;;;;;;;;;15.13;31.32;101011.50;5077023;28;20277;-68
2023/10/09 10:27:44;;;;;;;;;;;;;;;15.30;31.20;101011.88;5076750;28;19912;-68
2023/10/09 10:30:12;;;;;;;;;;;;;;;15.41;31.00;101008.53;5076589;28;19920;-68
2023/10/09 10:32:53;;;;;;;;;;;;;;;15.55;31.53;101013.94;5076504;28;19941;-68
2023/10/09 10:38:11;;;;;;;;;;;;;;;15.84;30.67;101005.31;5076724;28;19960;-69
2023/10/09 10:40:46;;;;;;;;;;;;;;;15.99;30.59;101007.72;5076698;28;19916;-68
2023/10/09 10:43:31;;;;;;;;;;;;;;;16.11;30.76;100999.75;5076701;28;19916;-69
2023/10/09 10:49:00;;;;;;;;;;;;;;;16.43;30.79;100994.31;5078149;28;19965;-69
2023/10/09 10:51:35;;;;;;;;;;;;;;;16.52;30.00;100997.59;5079498;28;20281;-69
2023/10/09 10:54:26;;;;;;;;;;;;;;;16.62;30.29;101000.66;5056803;28;19947;-69
2023/10/09 10:56:49;;;;;;;;;;;;;;;16.83;30.89;100994.06;5086212;28;19916;-69
2023/10/09 10:59:22;;;;;;;;;;;;;;;17.04;29.99;100995.53;5065005;28;19916;-68
2023/10/09 11:02:27;;;;;;;;;;;;;;;17.35;31.06;100997.28;5091185;28;19919;-68
2023/10/09 11:04:41;;;;;;;;;;;;;;;17.76;29.95;100989.50;5072719;28;19913;-68
2023/10/09 11:07:12;;;;;;;;;;;;;;;18.04;29.02;100985.41;5058179;28;19962;-68
2023/10/09 11:09:58;;;;;;;;;;;;;;;18.32;29.66;100987.50;5075844;28;19927;-68
2023/10/09 11:12:23;;;;;;;;;;;;;;;18.47;27.93;100998.78;5058080;28;19963;-69
2023/10/09 11:15:08;;;;;;;;;;;;;;;18.57;28.21;101009.09;5075971;28;19955;-68
2023/10/09 11:17:38;;;;;;;;;;;;;;;18.68;28.57;101005.56;5076077;28;19935;-68
2023/10/09 11:20:24;;;;;;;;;;;;;;;18.79;27.29;101008.53;5076065;28;19994;-68
2023/10/09 11:23:14;;;;;;;;;;;;;;;18.87;29.10;101019.09;5058153;28;19913;-68
2023/10/09 11:25:38;;;;;;;;;;;;;;;18.81;27.07;101022.75;5047219;28;19967;-69
2023/10/09 11:28:27;;;;;;;;;;;;;;;18.77;27.94;101015.03;5055722;28;19913;-68
2023/10/09 11:30:55;;;;;;;;;;;;;;;18.74;27.58;101007.34;5055682;28;20500;-69
2023/10/09 11:33:22;;;;;;;;;;;;;;;18.62;27.25;101006.50;5055526;28;20344;-68
2023/10/09 11:35:59;;;;;;;;;;;;;;;18.55;27.53;101011.22;5055520;28;19920;-68
2023/10/09 11:38:26;;;;;;;;;;;;;;;18.51;27.00;101013.56;5055335;28;19913;-68
2023/10/09 11:43:53;;;;;;;;;;;;;;;18.56;27.16;101010.97;5055131;28;19913;-68
2023/10/09 11:46:11;;;;;;;;;;;;;;;18.62;27.40;101017.38;5058095;28;19940;-68
2023/10/09 11:48:49;;;;;;;;;;;;;;;18.64;27.42;101015.25;5075110;28;19917;-69
2023/10/09 11:53:45;;;;;;;;;;;;;;;18.68;27.67;101002.84;5074392;28;19927;-68
2023/10/09 11:56:14;;;;;;;;;;;;;;;18.68;27.21;101002.84;5069730;28;20365;-68
2023/10/09 11:58:42;;;;;;;;;;;;;;;18.73;27.37;100997.53;5095666;28;19981;-68
2023/10/09 12:01:16;;;;;;;;;;;;;;;18.66;27.28;100996.78;5081061;28;19913;-68
2023/10/09 12:03:42;;;;;;;;;;;;;;;18.61;26.95;100991.25;5055095;28;19912;-68
2023/10/09 12:06:12;;;;;;;;;;;;;;;18.56;27.16;100980.25;5055822;28;19928;-68
2023/10/09 12:08:37;;;;;;;;;;;;;;;18.52;26.94;100987.22;5074873;28;19927;-68
2023/10/09 12:11:08;;;;;;;;;;;;;;;18.41;26.58;100996.19;5075025;28;19920;-68
2023/10/09 12:13:33;;;;;;;;;;;;;;;18.36;27.12;100992.25;5055496;28;19924;-68
2023/10/09 12:15:58;;;;;;;;;;;;;;;18.38;26.88;100984.69;5060068;28;20258;-68
2023/10/09 12:18:24;;;;;;;;;;;;;;;18.41;26.80;100971.69;5077084;28;20064;-68
2023/10/09 12:20:55;;;;;;;;;;;;;;;18.36;26.39;100981.38;5095446;28;20284;-67
2023/10/09 12:23:21;;;;;;;;;;;;;;;18.44;26.87;100982.09;5093288;28;20382;-67
2023/10/09 12:25:50;;;;;;;;;;;;;;;18.52;27.48;100979.88;5069913;28;19923;-67
2023/10/09 12:28:18;;;;;;;;;;;;;;;18.57;27.01;100966.41;5074631;28;19963;-68
2023/10/09 12:30:50;;;;;;;;;;;;;;;18.52;26.74;100962.72;5075096;28;19913;-68
2023/10/09 12:33:15;;;;;;;;;;;;;;;18.58;27.24;100964.50;5074780;28;19916;-68
2023/10/09 12:35:41;;;;;;;;;;;;;;;18.50;25.97;100964.88;5074271;28;19962;-67
2023/10/09 12:38:10;;;;;;;;;;;;;;;18.46;26.45;100963.66;5074019;28;19960;-67
2023/10/09 12:40:36;;;;;;;;;;;;;;;18.32;26.78;100953.00;5074472;28;19916;-67
2023/10/09 12:43:01;;;;;;;;;;;;;;;18.38;26.41;100957.47;5074391;28;19913;-67
2023/10/09 12:45:27;;;;;;;;;;;;;;;18.40;26.38;100961.88;5074390;28;19913;-67
2023/10/09 12:47:58;;;;;;;;;;;;;;;18.45;26.25;100959.28;5074099;28;19916;-67
2023/10/09 12:50:33;;;;;;;;;;;;;;;18.33;25.70;100962.81;5076791;28;19962;-67
2023/10/09 12:53:02;;;;;;;;;;;;;;;18.19;24.40;100964.88;5082611;28;20323;-68
2023/10/09 12:55:31;;;;;;;;;;;;;;;18.19;24.21;100970.34;5073596;28;19912;-68
2023/10/09 12:58:06;;;;;;;;;;;;;;;18.20;25.46;100965.72;5073922;28;19963;-67
2023/10/09 13:00:32;;;;;;;;;;;;;;;18.17;25.63;100956.16;5074019;28;20360;-67
2023/10/09 13:03:00;;;;;;;;;;;;;;;18.20;24.93;100954.84;5073494;28;20301;-67
2023/10/09 13:05:26;;;;;;;;;;;;;;;18.23;25.14;100948.94;5073844;28;20007;-68
2023/10/09 13:07:57;;;;;;;;;;;;;;;18.25;25.22;100946.81;5055760;28;19951;-67
2023/10/09 13:10:25;;;;;;;;;;;;;;;18.12;25.63;100960.63;5073589;28;19924;-68
2023/10/09 13:12:55;;;;;;;;;;;;;;;17.98;25.55;100960.81;5073988;28;19916;-67
2023/10/09 13:15:21;;;;;;;;;;;;;;;17.92;25.46;100958.19;5073741;28;19920;-67
2023/10/09 13:17:46;;;;;;;;;;;;;;;17.94;25.23;100962.34;5073608;28;19916;-67
2023/10/09 13:20:14;;;;;;;;;;;;;;;17.93;25.77;100962.56;5073486;28;19913;-68
2023/10/09 13:22:41;;;;;;;;;;;;;;;17.94;26.20;100956.06;5073427;28;20380;-67
2023/10/09 13:25:15;;;;;;;;;;;;;;;17.88;25.78;100954.28;5073738;28;20365;-68
2023/10/09 13:27:41;;;;;;;;;;;;;;;17.94;25.88;100945.19;5073539;28;19919;-67
2023/10/09 13:30:08;;;;;;;;;;;;;;;18.02;26.57;100952.22;5073390;28;19912;-68
2023/10/09 13:32:35;;;;;;;;;;;;;;;18.03;25.57;100959.28;5073552;28;19917;-68
2023/10/09 13:35:05;;;;;;;;;;;;;;;18.20;26.75;100954.84;5073418;28;19912;-68
2023/10/09 13:37:32;;;;;;;;;;;;;;;18.46;25.39;100960.94;5073619;28;19912;-68
2023/10/09 13:39:57;;;;;;;;;;;;;;;18.48;25.37;100956.94;5073169;28;20585;-68
2023/10/09 13:42:25;;;;;;;;;;;;;;;18.37;24.64;100958.56;5055354;28;19923;-68
2023/10/09 13:44:53;;;;;;;;;;;;;;;18.42;24.86;100948.88;5073211;28;19912;-68
2023/10/09 13:47:20;;;;;;;;;;;;;;;18.39;24.69;100950.19;5081362;28;19920;-68
2023/10/09 13:49:50;;;;;;;;;;;;;;;18.33;24.40;100948.38;5093359;28;20400;-68
2023/10/09 13:52:18;;;;;;;;;;;;;;;18.24;24.29;100938.88;5068951;28;20027;-68
2023/10/09 13:54:47;;;;;;;;;;;;;;;18.23;24.90;100946.22;5072287;28;19924;-68
2023/10/09 13:57:13;;;;;;;;;;;;;;;18.18;26.39;100948.81;5072943;28;19951;-68
2023/10/09 13:59:43;;;;;;;;;;;;;;;18.07;25.12;100949.59;5073586;28;19940;-68
2023/10/09 14:02:09;;;;;;;;;;;;;;;17.91;25.15;100948.38;5072880;28;19969;-67
2023/10/09 14:04:34;;;;;;;;;;;;;;;17.87;25.60;100941.75;5073461;28;19912;-67
2023/10/09 14:07:01;;;;;;;;;;;;;;;17.85;25.50;100954.72;5073531;28;19912;-67
2023/10/09 14:09:38;;;;;;;;;;;;;;;17.88;25.76;100954.28;5073065;28;19932;-67
2023/10/09 14:12:07;;;;;;;;;;;;;;;17.74;25.68;100950.88;5055541;28;19912;-67
2023/10/09 14:14:34;;;;;;;;;;;;;;;17.72;25.24;100947.56;5073045;28;20392;-68
2023/10/09 14:16:59;;;;;;;;;;;;;;;17.70;27.05;100944.22;5073062;28;19919;-69
2023/10/09 14:19:24;;;;;;;;;;;;;;;17.67;25.59;100950.13;5073140;28;19995;-68
2023/10/09 14:21:51;;;;;;;;;;;;;;;17.63;26.31;100938.06;5073437;28;20000;-68
2023/10/09 14:24:17;;;;;;;;;;;;;;;17.70;26.83;100939.66;5073089;28;19917;-68
2023/10/09 14:26:45;;;;;;;;;;;;;;;17.72;26.06;100942.13;5073235;28;20303;-68
2023/10/09 14:29:14;;;;;;;;;;;;;;;17.77;25.88;100940.38;5073267;28;19995;-68
2023/10/09 14:31:40;;;;;;;;;;;;;;;17.85;25.65;100927.53;5072895;28;19919;-68
2023/10/09 14:34:09;;;;;;;;;;;;;;;18.16;24.46;100926.47;5072897;28;19920;-69
2023/10/09 14:36:34;;;;;;;;;;;;;;;18.09;24.65;100921.16;5073131;28;19916;-68
2023/10/09 14:39:00;;;;;;;;;;;;;;;17.99;25.68;100913.53;5072901;28;19919;-68
2023/10/09 14:41:27;;;;;;;;;;;;;;;17.87;24.54;100909.16;5072845;28;19913;-69